Time;durP1;ratioP1;P1;durP2;ratioP2;P2;SDS_P1;SDS_P2;PMS_P1;PMS_P2;Temp;Humidity;BMP_temperature;BMP_pressure;BME280_temperature;BME280_humidity;BME280_pressure;Samples;Min_cycle;Max_cycle;Signal;HPM_P1;HPM_P2
2020/12/29 00:01:32;;;;;;;8.05;0.98;;;9.80;96.70;;;;;;5020031;28;20041;-75
2020/12/29 00:04:01;;;;;;;5.53;1.02;;;9.80;96.70;;;;;;5022451;28;20729;-74
2020/12/29 00:06:28;;;;;;;3.55;0.93;;;9.80;96.70;;;;;;4998682;28;20511;-74
2020/12/29 00:08:55;;;;;;;4.28;0.98;;;9.80;96.70;;;;;;5022440;28;20506;-74
2020/12/29 00:11:23;;;;;;;5.63;1.00;;;9.70;96.70;;;;;;5020379;28;20033;-75
2020/12/29 00:13:50;;;;;;;4.05;0.80;;;9.70;96.70;;;;;;5021992;28;20037;-75
2020/12/29 00:16:18;;;;;;;7.32;1.02;;;9.70;96.70;;;;;;5022943;28;20483;-75
2020/12/29 00:18:45;;;;;;;7.90;0.98;;;9.70;96.70;;;;;;5021101;28;20041;-75
2020/12/29 00:21:21;;;;;;;6.43;0.90;;;9.80;96.70;;;;;;4986368;28;20033;-75
2020/12/29 00:23:49;;;;;;;6.32;0.73;;;9.90;96.70;;;;;;5001124;28;20529;-74
2020/12/29 00:26:17;;;;;;;7.88;0.88;;;10.00;96.70;;;;;;5004298;28;20045;-75
2020/12/29 00:28:45;;;;;;;7.38;1.33;;;10.00;96.70;;;;;;5021660;28;20104;-74
2020/12/29 00:31:18;;;;;;;5.55;0.90;;;10.10;96.70;;;;;;5019813;28;20037;-74
2020/12/29 00:33:46;;;;;;;6.72;1.45;;;10.10;96.70;;;;;;5020667;28;20037;-75
2020/12/29 00:36:14;;;;;;;9.20;1.45;;;10.10;96.70;;;;;;5019951;28;20509;-75
2020/12/29 00:38:42;;;;;;;4.38;1.50;;;10.20;96.70;;;;;;5001285;28;20475;-74
2020/12/29 00:41:10;;;;;;;6.05;0.90;;;10.20;96.70;;;;;;5018796;28;20129;-75
2020/12/29 00:43:39;;;;;;;3.53;0.80;;;10.20;96.70;;;;;;5005075;28;20551;-75
2020/12/29 00:46:07;;;;;;;6.47;1.13;;;10.30;96.70;;;;;;5004413;28;20035;-74
2020/12/29 00:48:35;;;;;;;7.38;1.08;;;10.20;96.70;;;;;;5000488;28;20067;-75
2020/12/29 00:51:07;;;;;;;7.75;1.10;;;10.20;96.70;;;;;;5019938;28;20377;-75
2020/12/29 00:53:38;;;;;;;5.28;1.20;;;10.20;96.70;;;;;;4981881;28;20045;-74
2020/12/29 00:56:10;;;;;;;7.85;1.45;;;10.10;96.70;;;;;;5016809;28;20337;-75
2020/12/29 00:58:39;;;;;;;10.23;1.58;;;10.10;96.70;;;;;;4989231;28;20132;-74
2020/12/29 01:01:09;;;;;;;5.38;0.93;;;10.10;96.70;;;;;;5010540;28;20045;-74
2020/12/29 01:03:57;;;;;;;5.55;0.85;;;10.10;96.70;;;;;;5006302;28;20045;-74
2020/12/29 01:06:26;;;;;;;7.47;1.48;;;9.90;96.70;;;;;;5002244;28;20457;-74
2020/12/29 01:08:54;;;;;;;6.18;0.80;;;9.70;96.70;;;;;;5016118;28;20437;-74
2020/12/29 01:11:34;;;;;;;6.68;0.90;;;9.50;96.70;;;;;;5019066;28;20046;-74
2020/12/29 01:14:04;;;;;;;7.32;1.40;;;9.40;96.70;;;;;;5020683;28;20037;-74
2020/12/29 01:16:38;;;;;;;5.70;0.77;;;9.40;96.70;;;;;;4984171;28;20057;-74
2020/12/29 01:19:06;;;;;;;6.63;1.33;;;9.40;96.70;;;;;;5009525;28;20461;-74
2020/12/29 01:21:33;;;;;;;5.75;1.02;;;9.40;96.70;;;;;;5021083;28;20042;-74
2020/12/29 01:24:00;;;;;;;9.38;1.65;;;9.30;96.70;;;;;;5016838;28;20038;-74
2020/12/29 01:26:27;;;;;;;17.08;3.53;;;9.30;96.70;;;;;;5017389;28;20053;-74
2020/12/29 01:28:56;;;;;;;14.05;4.03;;;9.30;96.70;;;;;;5001818;28;20054;-74
2020/12/29 01:31:25;;;;;;;14.77;3.83;;;9.30;96.70;;;;;;5021555;28;20366;-74
2020/12/29 01:33:52;;;;;;;9.82;2.78;;;9.30;96.70;;;;;;5001971;28;20045;-74
2020/12/29 01:36:20;;;;;;;19.77;6.30;;;9.30;96.70;;;;;;5022402;28;20394;-74
2020/12/29 01:38:48;;;;;;;13.90;3.53;;;9.30;96.70;;;;;;5001486;28;20420;-74
2020/12/29 01:41:15;;;;;;;11.85;1.95;;;9.40;96.70;;;;;;4980108;28;20049;-74
2020/12/29 01:43:42;;;;;;;5.60;1.50;;;9.40;96.70;;;;;;4998516;28;21380;-74
2020/12/29 01:46:10;;;;;;;11.73;2.25;;;9.40;96.70;;;;;;5019391;28;20037;-75
2020/12/29 01:48:38;;;;;;;9.63;1.70;;;9.40;96.70;;;;;;5001969;28;20454;-74
2020/12/29 01:51:06;;;;;;;8.07;1.48;;;9.30;96.70;;;;;;5023189;28;20565;-74
2020/12/29 01:53:34;;;;;;;7.10;1.55;;;9.30;96.70;;;;;;4998044;28;20516;-74
2020/12/29 01:56:02;;;;;;;6.60;1.67;;;9.30;96.70;;;;;;5003552;28;20037;-74
2020/12/29 01:58:30;;;;;;;10.70;1.77;;;9.40;96.70;;;;;;5016922;28;20054;-74
2020/12/29 02:00:57;;;;;;;11.25;2.20;;;9.40;96.70;;;;;;5002573;28;20484;-74
2020/12/29 02:03:25;;;;;;;11.13;1.80;;;9.40;96.70;;;;;;5016937;28;20489;-74
2020/12/29 02:05:53;;;;;;;7.43;1.67;;;9.30;96.70;;;;;;5022338;28;20033;-74
2020/12/29 02:08:20;;;;;;;9.05;1.63;;;9.40;96.70;;;;;;5018586;28;20550;-74
2020/12/29 02:10:52;;;;;;;8.23;1.00;;;9.40;96.70;;;;;;5020897;28;20534;-74
2020/12/29 02:13:19;;;;;;;6.10;1.30;;;9.30;96.70;;;;;;4985145;28;20057;-74
2020/12/29 02:15:46;;;;;;;8.98;1.77;;;9.30;96.70;;;;;;5001752;28;20040;-74
2020/12/29 02:18:15;;;;;;;5.63;1.27;;;9.30;96.70;;;;;;5001814;28;20054;-75
2020/12/29 02:20:44;;;;;;;9.35;1.17;;;9.40;96.70;;;;;;4986729;28;20061;-75
2020/12/29 02:23:12;;;;;;;6.90;1.35;;;9.40;96.70;;;;;;4984614;28;20438;-75
2020/12/29 02:25:39;;;;;;;8.88;1.10;;;9.40;96.70;;;;;;5018893;28;20530;-74
2020/12/29 02:28:07;;;;;;;10.35;1.27;;;9.40;96.70;;;;;;4978302;28;20534;-75
2020/12/29 02:30:35;;;;;;;9.23;1.30;;;9.40;96.70;;;;;;4979252;28;20586;-74
2020/12/29 02:33:02;;;;;;;8.63;1.15;;;9.50;96.70;;;;;;5021101;28;20069;-74
2020/12/29 02:35:29;;;;;;;7.75;0.93;;;9.50;96.70;;;;;;4978844;28;20140;-74
2020/12/29 02:37:57;;;;;;;10.50;2.15;;;9.60;96.70;;;;;;5001854;28;20041;-75
2020/12/29 02:40:25;;;;;;;8.65;1.45;;;9.60;96.70;;;;;;4988913;28;20043;-75
2020/12/29 02:42:52;;;;;;;6.05;1.00;;;9.60;96.70;;;;;;5002886;28;20124;-75
2020/12/29 02:45:19;;;;;;;5.65;0.82;;;9.60;96.70;;;;;;4992407;28;20037;-75
2020/12/29 02:47:46;;;;;;;7.53;1.02;;;9.60;96.70;;;;;;5017086;28;20045;-75
2020/12/29 02:50:13;;;;;;;6.30;0.85;;;9.60;96.70;;;;;;5002595;28;20046;-74
2020/12/29 02:52:40;;;;;;;7.13;1.13;;;9.60;96.70;;;;;;5001136;28;20038;-75
2020/12/29 02:55:08;;;;;;;8.15;1.25;;;9.60;96.70;;;;;;4989705;28;20037;-74
2020/12/29 02:57:36;;;;;;;7.18;1.13;;;9.50;96.70;;;;;;5001602;28;20069;-75
2020/12/29 03:00:03;;;;;;;8.82;1.23;;;9.50;96.70;;;;;;5003115;28;20446;-75
2020/12/29 03:02:31;;;;;;;4.75;0.70;;;9.50;96.70;;;;;;4985797;28;20052;-75
2020/12/29 03:05:01;;;;;;;5.15;0.80;;;9.50;96.70;;;;;;4996254;28;20029;-74
2020/12/29 03:07:28;;;;;;;5.50;0.70;;;9.50;96.70;;;;;;5003886;28;20041;-74
2020/12/29 03:09:55;;;;;;;5.20;0.95;;;9.60;96.70;;;;;;5005407;28;20128;-75
2020/12/29 03:12:23;;;;;;;9.63;1.17;;;9.60;96.70;;;;;;5007580;28;20117;-74
2020/12/29 03:14:51;;;;;;;5.07;0.88;;;9.60;96.70;;;;;;5003240;28;20124;-74
2020/12/29 03:17:18;;;;;;;7.18;1.13;;;9.60;96.70;;;;;;5013459;28;20099;-75
2020/12/29 03:19:45;;;;;;;4.95;0.95;;;9.60;96.70;;;;;;5001292;28;20038;-74
2020/12/29 03:22:12;;;;;;;5.82;0.90;;;9.50;96.70;;;;;;4988002;28;20066;-74
2020/12/29 03:24:39;;;;;;;10.10;1.27;;;9.50;96.70;;;;;;4990243;28;20045;-75
2020/12/29 03:27:06;;;;;;;5.93;1.23;;;9.40;96.70;;;;;;5016676;28;20503;-75
2020/12/29 03:29:33;;;;;;;8.05;0.80;;;9.40;96.70;;;;;;5022604;28;20041;-74
2020/12/29 03:32:01;;;;;;;9.75;1.70;;;9.40;96.70;;;;;;5006893;28;20049;-74
2020/12/29 03:34:37;;;;;;;4.78;0.90;;;9.40;96.70;;;;;;5001413;28;20045;-75
2020/12/29 03:37:05;;;;;;;5.25;0.85;;;9.40;96.70;;;;;;5004163;28;20053;-75
2020/12/29 03:39:32;;;;;;;3.97;0.43;;;9.40;96.70;;;;;;5002550;28;20069;-74
2020/12/29 03:41:59;;;;;;;7.43;0.80;;;9.30;96.70;;;;;;5020111;28;20746;-75
2020/12/29 03:44:27;;;;;;;3.35;0.70;;;9.30;96.70;;;;;;5021998;28;20045;-74
2020/12/29 03:46:54;;;;;;;2.92;0.45;;;9.30;96.70;;;;;;5022918;28;20045;-75
2020/12/29 03:49:22;;;;;;;3.40;0.60;;;9.30;96.70;;;;;;5003286;28;20072;-74
2020/12/29 03:51:49;;;;;;;6.05;0.50;;;9.30;96.70;;;;;;5023714;28;20042;-74
2020/12/29 03:54:16;;;;;;;3.85;0.65;;;9.30;96.70;;;;;;5021167;28;20045;-74
2020/12/29 03:56:43;;;;;;;4.93;0.60;;;9.30;96.70;;;;;;5023043;28;20710;-74
2020/12/29 03:59:10;;;;;;;3.35;0.75;;;9.30;96.70;;;;;;5002694;28;20325;-74
2020/12/29 04:01:38;;;;;;;2.13;0.30;;;9.30;96.70;;;;;;4986789;28;20045;-74
2020/12/29 04:04:05;;;;;;;5.90;0.82;;;9.20;96.70;;;;;;5020214;28;20037;-75
2020/12/29 04:06:34;;;;;;;2.88;0.43;;;9.20;96.70;;;;;;5005851;28;20509;-75
2020/12/29 04:09:01;;;;;;;3.58;0.80;;;9.20;96.70;;;;;;5023560;28;20366;-75
2020/12/29 04:11:28;;;;;;;2.78;0.60;;;9.20;96.70;;;;;;5022666;28;20038;-74
2020/12/29 04:13:55;;;;;;;3.03;0.40;;;9.20;96.70;;;;;;5005754;28;20046;-74
2020/12/29 04:16:23;;;;;;;6.15;0.60;;;9.20;96.70;;;;;;5002964;28;20042;-74
2020/12/29 04:18:50;;;;;;;2.95;0.90;;;9.20;96.70;;;;;;5003241;28;20055;-73
2020/12/29 04:21:19;;;;;;;3.70;0.70;;;9.20;96.70;;;;;;5021765;28;20034;-74
2020/12/29 04:23:47;;;;;;;4.55;0.85;;;9.20;96.70;;;;;;5021672;28;20037;-74
2020/12/29 04:26:14;;;;;;;5.43;0.70;;;9.10;96.70;;;;;;5019703;28;20076;-74
2020/12/29 04:28:41;;;;;;;2.33;0.47;;;9.10;96.70;;;;;;5004680;28;20045;-74
2020/12/29 04:31:10;;;;;;;4.00;0.73;;;9.10;96.70;;;;;;4987252;28;20045;-73
2020/12/29 04:33:38;;;;;;;3.10;0.75;;;9.10;96.70;;;;;;5000798;28;20509;-74
2020/12/29 04:36:06;;;;;;;6.45;0.75;;;9.10;96.70;;;;;;5021956;28;20099;-74
2020/12/29 04:38:34;;;;;;;5.28;1.13;;;9.10;96.70;;;;;;4992045;28;20099;-74
2020/12/29 04:41:02;;;;;;;4.35;1.48;;;9.10;96.70;;;;;;5020534;28;20124;-74
2020/12/29 04:43:32;;;;;;;5.05;1.25;;;9.10;96.70;;;;;;5022450;28;20033;-73
2020/12/29 04:46:00;;;;;;;6.07;0.93;;;9.00;96.70;;;;;;5019933;28;20072;-74
2020/12/29 04:48:28;;;;;;;2.28;0.40;;;8.80;96.70;;;;;;5004198;28;20037;-74
2020/12/29 04:51:01;;;;;;;1.45;0.22;;;8.80;96.70;;;;;;5019576;28;20502;-74
2020/12/29 04:53:31;;;;;;;1.83;0.32;;;8.70;96.70;;;;;;4992066;28;20127;-74
2020/12/29 04:56:05;;;;;;;2.55;0.30;;;8.60;96.70;;;;;;5018625;28;20033;-74
2020/12/29 04:58:34;;;;;;;2.92;0.40;;;8.60;96.70;;;;;;5020676;28;20045;-74
2020/12/29 05:01:05;;;;;;;2.80;0.30;;;8.60;96.70;;;;;;5020022;28;20037;-74
2020/12/29 05:03:42;;;;;;;3.00;0.30;;;8.60;96.70;;;;;;5022416;28;20041;-74
2020/12/29 05:06:10;;;;;;;4.57;0.60;;;8.60;96.70;;;;;;5016616;28;21050;-74
2020/12/29 05:08:37;;;;;;;3.13;0.50;;;8.60;96.70;;;;;;5004227;28;20277;-74
2020/12/29 05:11:05;;;;;;;2.53;0.55;;;8.60;96.70;;;;;;5000184;28;20041;-74
2020/12/29 05:13:32;;;;;;;2.53;0.70;;;8.60;96.70;;;;;;5021888;28;20041;-74
2020/12/29 05:15:59;;;;;;;3.35;0.50;;;8.60;96.70;;;;;;5020598;28;20037;-74
2020/12/29 05:18:27;;;;;;;4.50;0.82;;;8.60;96.70;;;;;;5021066;28;20049;-74
2020/12/29 05:20:54;;;;;;;2.42;0.40;;;8.60;96.70;;;;;;4999357;28;20530;-74
2020/12/29 05:23:21;;;;;;;3.22;0.50;;;8.60;96.70;;;;;;4987315;28;20033;-74
2020/12/29 05:25:49;;;;;;;1.88;0.60;;;8.60;96.70;;;;;;5020209;28;20314;-74
2020/12/29 05:28:18;;;;;;;2.22;0.40;;;8.60;96.70;;;;;;5001171;28;20503;-74
2020/12/29 05:30:52;;;;;;;3.20;0.52;;;8.60;96.70;;;;;;5023813;28;20432;-74
2020/12/29 05:33:25;;;;;;;2.42;0.50;;;8.60;96.70;;;;;;5018564;28;20153;-74
2020/12/29 05:35:53;;;;;;;4.85;0.70;;;8.70;96.70;;;;;;5021909;28;20136;-74
2020/12/29 05:38:20;;;;;;;1.33;0.40;;;8.70;96.70;;;;;;4998693;28;20144;-74
2020/12/29 05:40:49;;;;;;;3.53;0.50;;;8.70;96.70;;;;;;5021871;28;20595;-74
2020/12/29 05:43:28;;;;;;;2.90;0.45;;;8.70;96.70;;;;;;5001547;28;20038;-74
2020/12/29 05:45:57;;;;;;;3.13;0.50;;;8.70;96.70;;;;;;5003377;28;20107;-74
2020/12/29 05:48:25;;;;;;;2.15;0.50;;;8.80;96.70;;;;;;5018745;28;20590;-74
2020/12/29 05:50:52;;;;;;;4.28;0.43;;;8.90;96.70;;;;;;5004694;28;20053;-74
2020/12/29 05:53:20;;;;;;;3.33;1.08;;;8.90;96.70;;;;;;5012388;28;20068;-74
2020/12/29 05:55:47;;;;;;;3.15;0.40;;;8.90;96.70;;;;;;5015678;28;20107;-74
2020/12/29 05:58:16;;;;;;;1.35;0.35;;;8.90;96.70;;;;;;5019179;28;20034;-75
2020/12/29 06:00:44;;;;;;;2.90;0.60;;;9.00;96.70;;;;;;4998147;28;20045;-75
2020/12/29 06:03:12;;;;;;;3.72;0.50;;;9.00;96.70;;;;;;5020467;28;20060;-74
2020/12/29 06:05:39;;;;;;;4.22;0.45;;;9.00;96.70;;;;;;5018977;28;20059;-74
2020/12/29 06:08:07;;;;;;;2.78;0.30;;;9.00;96.70;;;;;;5019931;28;20045;-75
2020/12/29 06:10:36;;;;;;;3.60;0.30;;;9.00;96.70;;;;;;4995201;28;20033;-74
2020/12/29 06:13:05;;;;;;;4.88;0.57;;;9.00;96.70;;;;;;4999313;28;20336;-74
2020/12/29 06:15:35;;;;;;;6.05;1.42;;;9.00;96.70;;;;;;5003244;28;20135;-75
2020/12/29 06:18:05;;;;;;;5.70;1.45;;;9.00;96.70;;;;;;5018335;28;20041;-75
2020/12/29 06:20:34;;;;;;;4.53;1.15;;;8.90;96.70;;;;;;5020481;28;20053;-74
2020/12/29 06:23:04;;;;;;;3.92;1.25;;;8.90;96.70;;;;;;5000953;28;20411;-74
2020/12/29 06:25:34;;;;;;;5.88;1.73;;;8.90;96.70;;;;;;5020901;28;20056;-74
2020/12/29 06:28:04;;;;;;;3.00;0.98;;;8.90;96.70;;;;;;4995999;28;20452;-75
2020/12/29 06:30:33;;;;;;;7.13;1.33;;;8.90;96.70;;;;;;5020130;28;20511;-74
2020/12/29 06:33:00;;;;;;;5.50;1.38;;;8.90;96.70;;;;;;5000092;28;20495;-74
2020/12/29 06:35:28;;;;;;;6.80;1.55;;;9.00;96.70;;;;;;5020385;28;20199;-74
2020/12/29 06:38:05;;;;;;;3.35;1.05;;;9.00;96.70;;;;;;5000090;28;20056;-75
2020/12/29 06:40:32;;;;;;;;;;;9.00;96.70;;;;;;5010489;28;20045;-75
2020/12/29 06:43:00;;;;;;;2.55;1.48;;;9.00;96.70;;;;;;5020326;28;19924;-74
2020/12/29 06:45:33;;;;;;;5.93;1.00;;;9.00;96.70;;;;;;5019661;28;20845;-75
2020/12/29 06:48:01;;;;;;;4.95;1.05;;;8.90;96.70;;;;;;5000648;28;20529;-75
2020/12/29 06:50:30;;;;;;;5.88;1.10;;;8.90;96.70;;;;;;4999233;28;20093;-75
2020/12/29 06:53:00;;;;;;;3.70;1.27;;;8.90;96.70;;;;;;5016960;28;20056;-74
2020/12/29 06:55:29;;;;;;;2.40;0.70;;;8.90;96.70;;;;;;5000685;28;20081;-75
2020/12/29 06:57:56;;;;;;;1.95;0.80;;;8.90;96.70;;;;;;4998584;28;20137;-75
2020/12/29 07:00:25;;;;;;;3.33;1.05;;;8.90;96.70;;;;;;5019001;28;20111;-75
2020/12/29 07:02:53;;;;;;;6.03;1.00;;;8.90;96.70;;;;;;5020987;28;20098;-75
2020/12/29 07:05:23;;;;;;;6.10;1.52;;;8.90;96.70;;;;;;4998007;28;20368;-74
2020/12/29 07:07:55;;;;;;;4.72;1.27;;;8.90;96.70;;;;;;5020014;28;20038;-74
2020/12/29 07:10:27;;;;;;;4.53;1.58;;;8.90;96.70;;;;;;4999054;28;20557;-74
2020/12/29 07:12:54;;;;;;;4.50;0.90;;;8.90;96.70;;;;;;5020190;28;20041;-75
2020/12/29 07:15:23;;;;;;;4.00;0.98;;;8.90;96.70;;;;;;5016886;28;20113;-74
2020/12/29 07:17:56;;;;;;;6.60;2.47;;;8.90;96.70;;;;;;5004933;28;20053;-76
2020/12/29 07:20:24;;;;;;;15.35;7.15;;;8.90;96.70;;;;;;5021566;28;20041;-75
2020/12/29 07:22:57;;;;;;;9.23;2.55;;;9.00;96.70;;;;;;5001145;28;20041;-75
2020/12/29 07:25:25;;;;;;;8.63;2.72;;;9.00;96.70;;;;;;5019841;28;20048;-75
2020/12/29 07:27:55;;;;;;;7.70;2.67;;;9.00;96.70;;;;;;5021051;28;20049;-75
2020/12/29 07:30:22;;;;;;;8.52;2.72;;;9.00;96.70;;;;;;5021884;28;20125;-75
2020/12/29 07:32:49;;;;;;;8.40;3.10;;;9.00;96.70;;;;;;5022034;28;20408;-75
2020/12/29 07:35:18;;;;;;;9.73;5.25;;;8.90;96.70;;;;;;5021092;28;20054;-76
2020/12/29 07:37:50;;;;;;;5.93;2.70;;;8.90;96.70;;;;;;5004374;28;20426;-75
2020/12/29 07:40:18;;;;;;;5.13;2.88;;;8.80;96.70;;;;;;5020407;28;20042;-75
2020/12/29 07:42:47;;;;;;;6.25;2.00;;;8.90;96.70;;;;;;5005216;28;20041;-75
2020/12/29 07:45:15;;;;;;;7.13;1.73;;;8.80;96.70;;;;;;5020693;28;20059;-75
2020/12/29 07:47:42;;;;;;;5.70;1.52;;;8.80;96.70;;;;;;4988410;28;20143;-75
2020/12/29 07:50:10;;;;;;;3.13;1.30;;;8.80;96.70;;;;;;5021852;28;20553;-75
2020/12/29 07:52:37;;;;;;;6.82;1.60;;;8.80;96.70;;;;;;5022117;28;20045;-75
2020/12/29 07:55:07;;;;;;;3.53;1.38;;;8.80;96.70;;;;;;5022055;28;20046;-75
2020/12/29 07:57:37;;;;;;;4.38;0.90;;;8.80;96.70;;;;;;5022422;28;20048;-75
2020/12/29 08:00:07;;;;;;;5.50;1.50;;;8.80;96.70;;;;;;5022361;28;20096;-75
2020/12/29 08:02:39;;;;;;;4.82;1.73;;;8.90;96.70;;;;;;5005433;28;20415;-75
2020/12/29 08:05:07;;;;;;;3.00;1.27;;;8.90;96.70;;;;;;5005257;28;20148;-75
2020/12/29 08:07:35;;;;;;;6.10;1.55;;;8.90;96.70;;;;;;5022257;28;20048;-75
2020/12/29 08:10:08;;;;;;;8.13;2.72;;;8.90;96.70;;;;;;5005094;28;20413;-75
2020/12/29 08:12:36;;;;;;;5.40;1.83;;;9.00;96.70;;;;;;5003982;28;20396;-75
2020/12/29 08:15:04;;;;;;;4.25;1.38;;;9.00;96.70;;;;;;5022224;28;20040;-75
2020/12/29 08:17:31;;;;;;;4.13;1.70;;;9.00;96.70;;;;;;5004443;28;20049;-75
2020/12/29 08:20:00;;;;;;;8.93;2.47;;;9.00;96.70;;;;;;5004362;28;20116;-75
2020/12/29 08:22:28;;;;;;;6.32;2.10;;;9.00;96.70;;;;;;5022724;28;20503;-75
2020/12/29 08:24:56;;;;;;;5.90;1.83;;;9.10;96.70;;;;;;5021610;28;20044;-75
2020/12/29 08:27:23;;;;;;;6.45;1.35;;;9.20;96.70;;;;;;5005859;28;20073;-75
2020/12/29 08:29:52;;;;;;;3.83;1.10;;;9.20;96.70;;;;;;4985927;28;20052;-75
2020/12/29 08:32:24;;;;;;;2.88;1.05;;;9.20;96.70;;;;;;4977379;28;20165;-76
2020/12/29 08:34:51;;;;;;;8.65;2.35;;;9.20;96.70;;;;;;5002106;28;20282;-74
2020/12/29 08:37:23;;;;;;;6.82;2.20;;;9.30;96.70;;;;;;5000632;28;20041;-75
2020/12/29 08:40:02;;;;;;;5.15;1.95;;;9.30;96.70;;;;;;4974468;28;20086;-75
2020/12/29 08:42:33;;;;;;;2.83;1.50;;;9.30;96.70;;;;;;4976313;28;20054;-75
2020/12/29 08:45:06;;;;;;;3.42;1.30;;;9.40;96.70;;;;;;4986282;28;20050;-75
2020/12/29 08:47:33;;;;;;;7.32;2.33;;;9.40;96.70;;;;;;4999739;28;20491;-75
2020/12/29 08:50:20;;;;;;;3.78;1.50;;;9.50;96.70;;;;;;4983934;28;20049;-75
2020/12/29 08:52:52;;;;;;;5.82;1.83;;;9.50;96.70;;;;;;5001235;28;20384;-75
2020/12/29 08:55:28;;;;;;;5.07;1.55;;;9.60;96.70;;;;;;5001230;28;20151;-75
2020/12/29 08:57:57;;;;;;;5.17;1.73;;;9.60;96.70;;;;;;5000496;28;20049;-75
2020/12/29 09:00:27;;;;;;;5.22;2.17;;;9.60;96.70;;;;;;4982758;28;20307;-75
2020/12/29 09:02:54;;;;;;;6.95;2.10;;;9.60;96.70;;;;;;4999577;28;20048;-75
2020/12/29 09:05:23;;;;;;;6.78;3.10;;;9.70;96.70;;;;;;5001468;28;20613;-75
2020/12/29 09:07:51;;;;;;;6.20;2.22;;;9.70;96.70;;;;;;5000197;28;20359;-75
2020/12/29 09:10:19;;;;;;;8.60;2.33;;;9.70;96.70;;;;;;4984293;28;20052;-75
2020/12/29 09:12:48;;;;;;;7.47;1.83;;;9.70;96.70;;;;;;5000220;28;20436;-75
2020/12/29 09:15:24;;;;;;;4.85;2.00;;;9.70;96.70;;;;;;4965262;28;20385;-75
2020/12/29 09:17:57;;;;;;;3.55;1.40;;;9.70;96.70;;;;;;4986482;28;20420;-75
2020/12/29 09:20:28;;;;;;;4.82;1.60;;;9.70;96.70;;;;;;4997114;28;20554;-75
2020/12/29 09:22:58;;;;;;;6.40;2.38;;;9.70;96.70;;;;;;4982713;28;20038;-75
2020/12/29 09:25:30;;;;;;;2.42;1.15;;;9.70;96.70;;;;;;4999293;28;20058;-75
2020/12/29 09:28:13;;;;;;;5.35;1.40;;;9.80;96.70;;;;;;5017759;28;20547;-75
2020/12/29 09:30:43;;;;;;;5.95;2.13;;;9.80;96.70;;;;;;5002423;28;20076;-75
2020/12/29 09:33:18;;;;;;;9.80;3.80;;;9.90;96.70;;;;;;5001416;28;20051;-75
2020/12/29 09:35:46;;;;;;;4.13;1.60;;;9.90;96.70;;;;;;5001179;28;20038;-74
2020/12/29 09:38:14;;;;;;;6.68;2.75;;;9.90;96.70;;;;;;5020498;28;20280;-74
2020/12/29 09:40:58;;;;;;;12.30;5.40;;;9.90;96.70;;;;;;5000177;28;20164;-74
2020/12/29 09:43:25;;;;;;;7.63;2.60;;;9.90;96.70;;;;;;4985181;28;20041;-74
2020/12/29 09:45:53;;;;;;;6.25;4.20;;;9.90;96.70;;;;;;5004770;28;20058;-75
2020/12/29 09:48:21;;;;;;;6.82;2.00;;;10.00;96.70;;;;;;5019976;28;20044;-75
2020/12/29 09:50:48;;;;;;;10.13;3.38;;;10.00;96.70;;;;;;4988671;28;20073;-74
2020/12/29 09:53:16;;;;;;;14.68;5.15;;;10.10;96.70;;;;;;5001681;28;20413;-75
2020/12/29 09:55:43;;;;;;;8.50;2.75;;;10.10;96.70;;;;;;5002524;28;20037;-74
2020/12/29 09:58:11;;;;;;;7.88;3.08;;;10.20;96.70;;;;;;5014570;28;20040;-75
2020/12/29 10:00:38;;;;;;;11.75;2.67;;;10.20;96.70;;;;;;5001983;28;20060;-75
2020/12/29 10:03:06;;;;;;;8.93;3.15;;;10.30;96.70;;;;;;5001285;28;20503;-75
2020/12/29 10:05:35;;;;;;;4.82;2.15;;;10.30;96.70;;;;;;5020193;28;20096;-75
2020/12/29 10:08:02;;;;;;;8.65;3.00;;;10.30;96.70;;;;;;5002046;28;20037;-75
2020/12/29 10:10:30;;;;;;;9.00;2.35;;;10.30;96.70;;;;;;5020312;28;20043;-75
2020/12/29 10:12:57;;;;;;;9.90;2.40;;;10.40;96.70;;;;;;4996645;28;20077;-75
2020/12/29 10:15:24;;;;;;;11.70;2.55;;;10.40;96.70;;;;;;5004244;28;20396;-75
2020/12/29 10:17:52;;;;;;;6.63;2.05;;;10.40;96.70;;;;;;5001355;28;20518;-75
2020/12/29 10:20:19;;;;;;;9.10;2.30;;;10.50;96.70;;;;;;5002094;28;20486;-75
2020/12/29 10:22:48;;;;;;;6.82;2.05;;;10.50;96.70;;;;;;5013080;28;20403;-75
2020/12/29 10:25:15;;;;;;;6.97;1.40;;;10.60;96.70;;;;;;5003223;28;20037;-74
2020/12/29 10:27:43;;;;;;;7.75;1.90;;;10.60;96.70;;;;;;5016440;28;21289;-75
2020/12/29 10:30:11;;;;;;;5.85;2.03;;;10.60;96.70;;;;;;5017396;28;20053;-75
2020/12/29 10:32:39;;;;;;;8.40;2.92;;;10.60;96.70;;;;;;5018684;28;20048;-75
2020/12/29 10:35:07;;;;;;;6.32;2.72;;;10.60;96.70;;;;;;5001197;28;20546;-75
2020/12/29 10:37:34;;;;;;;8.90;3.03;;;10.60;96.70;;;;;;5017820;28;20505;-73
2020/12/29 10:40:04;;;;;;;6.80;2.80;;;10.60;96.70;;;;;;5000958;28;20649;-76
2020/12/29 10:42:31;;;;;;;8.98;3.30;;;10.70;96.70;;;;;;4998866;28;20379;-76
2020/12/29 10:44:59;;;;;;;7.90;3.22;;;10.70;96.70;;;;;;5002142;28;20123;-74
2020/12/29 10:47:26;;;;;;;6.75;3.00;;;10.80;96.70;;;;;;5000482;28;20041;-74
2020/12/29 10:49:53;;;;;;;8.57;3.10;;;10.80;96.70;;;;;;5018063;28;20496;-75
2020/12/29 10:52:22;;;;;;;14.77;5.28;;;10.90;96.70;;;;;;5001959;28;20037;-75
2020/12/29 10:54:49;;;;;;;9.23;3.80;;;11.10;96.70;;;;;;5005436;28;20091;-75
2020/12/29 10:57:19;;;;;;;7.72;3.30;;;11.30;96.70;;;;;;5016230;28;21063;-74
2020/12/29 10:59:48;;;;;;;7.57;2.83;;;11.50;96.70;;;;;;4996466;28;20261;-74
2020/12/29 11:02:15;;;;;;;7.93;2.85;;;11.60;96.70;;;;;;5025496;28;20080;-75
2020/12/29 11:04:43;;;;;;;7.88;2.88;;;11.60;96.70;;;;;;4984286;28;20342;-75
2020/12/29 11:07:10;;;;;;;12.77;4.45;;;11.60;96.70;;;;;;5002484;28;20403;-75
2020/12/29 11:09:37;;;;;;;8.48;3.17;;;11.60;96.70;;;;;;5004661;28;20049;-75
2020/12/29 11:12:05;;;;;;;6.13;2.50;;;11.70;96.70;;;;;;5001670;28;20041;-74
2020/12/29 11:14:33;;;;;;;7.65;2.55;;;11.70;96.70;;;;;;5001643;28;20073;-75
2020/12/29 11:17:00;;;;;;;6.82;2.90;;;11.70;96.70;;;;;;5004067;28;20041;-75
2020/12/29 11:19:45;;;;;;;12.30;4.20;;;11.70;96.70;;;;;;5019638;28;20050;-74
2020/12/29 11:22:14;;;;;;;10.60;6.30;;;11.60;96.70;;;;;;5021447;28;20546;-75
2020/12/29 11:24:41;;;;;;;13.60;6.18;;;11.60;96.70;;;;;;5003535;28;20041;-75
2020/12/29 11:27:08;;;;;;;12.48;6.88;;;11.60;96.70;;;;;;5020684;28;20159;-75
2020/12/29 11:29:39;;;;;;;13.02;7.53;;;11.60;96.70;;;;;;5004540;28;20083;-75
2020/12/29 11:32:09;;;;;;;11.93;6.90;;;11.60;96.70;;;;;;5000990;28;20076;-75
2020/12/29 11:34:36;;;;;;;12.80;6.78;;;11.60;96.70;;;;;;5002625;28;20041;-75
2020/12/29 11:37:03;;;;;;;11.48;5.47;;;11.70;96.70;;;;;;5021288;28;20641;-76
2020/12/29 11:39:31;;;;;;;5.25;2.40;;;11.70;96.70;;;;;;5002277;28;20246;-75
2020/12/29 11:41:59;;;;;;;4.30;1.73;;;11.80;96.70;;;;;;5020462;28;20124;-74
2020/12/29 11:44:26;;;;;;;5.85;1.92;;;11.80;96.70;;;;;;5004076;28;20562;-75
2020/12/29 11:46:54;;;;;;;7.63;4.43;;;11.80;96.70;;;;;;5004312;28;20107;-75
2020/12/29 11:49:21;;;;;;;6.05;1.75;;;11.80;96.70;;;;;;4998313;28;20053;-75
2020/12/29 11:51:49;;;;;;;9.68;6.40;;;11.70;96.70;;;;;;4999096;28;20056;-75
2020/12/29 11:54:16;;;;;;;5.47;3.67;;;11.70;96.70;;;;;;5003008;28;20048;-74
2020/12/29 11:56:48;;;;;;;8.48;6.18;;;11.80;96.70;;;;;;5003407;28;20061;-74
2020/12/29 11:59:16;;;;;;;7.97;2.17;;;11.80;96.70;;;;;;5021351;28;20081;-74
2020/12/29 12:01:43;;;;;;;5.70;1.92;;;11.80;96.70;;;;;;4984758;28;20619;-74
2020/12/29 12:04:12;;;;;;;6.13;2.47;;;11.90;96.70;;;;;;4986239;28;20056;-74
2020/12/29 12:06:39;;;;;;;3.50;1.33;;;12.00;96.70;;;;;;5001710;28;20044;-73
2020/12/29 12:09:07;;;;;;;5.25;1.90;;;12.10;96.70;;;;;;5018265;28;20038;-74
2020/12/29 12:11:34;;;;;;;3.25;0.90;;;12.10;96.70;;;;;;5018692;28;20120;-74
2020/12/29 12:14:01;;;;;;;7.45;1.75;;;12.10;96.70;;;;;;5002935;28;20111;-74
2020/12/29 12:16:29;;;;;;;2.88;0.98;;;12.10;96.70;;;;;;5000593;28;20037;-74
2020/12/29 12:18:56;;;;;;;2.97;1.27;;;12.10;96.70;;;;;;5000429;28;20132;-74
2020/12/29 12:21:29;;;;;;;7.07;2.88;;;12.20;96.70;;;;;;4987147;28;20396;-74
2020/12/29 12:23:57;;;;;;;15.75;7.82;;;12.40;96.70;;;;;;5015474;28;20049;-74
2020/12/29 12:26:25;;;;;;;8.43;1.80;;;12.70;96.70;;;;;;4997972;28;20099;-75
2020/12/29 12:28:52;;;;;;;4.50;0.90;;;13.00;96.70;;;;;;5020666;28;20885;-75
2020/12/29 12:31:21;;;;;;;3.63;1.08;;;13.00;96.70;;;;;;4997958;28;20399;-74
2020/12/29 12:33:49;;;;;;;2.80;0.90;;;13.20;96.70;;;;;;4985719;28;20067;-74
2020/12/29 12:36:18;;;;;;;2.70;0.73;;;13.50;96.70;;;;;;5001448;28;20037;-74
2020/12/29 12:38:48;;;;;;;3.90;0.90;;;13.60;96.70;;;;;;4998755;28;20049;-74
2020/12/29 12:41:15;;;;;;;3.08;0.90;;;13.40;96.70;;;;;;5017710;28;20252;-74
2020/12/29 12:43:44;;;;;;;2.42;1.10;;;13.20;96.70;;;;;;5022310;28;20143;-75
2020/12/29 12:46:13;;;;;;;8.75;2.10;;;12.90;96.70;;;;;;5018577;28;20423;-75
2020/12/29 12:48:41;;;;;;;3.78;1.35;;;12.80;96.70;;;;;;5018572;28;20489;-75
2020/12/29 12:51:08;;;;;;;14.27;10.13;;;12.60;96.70;;;;;;5002849;28;20073;-75
2020/12/29 12:53:35;;;;;;;53.45;38.65;;;12.50;96.70;;;;;;5020961;28;20049;-74
2020/12/29 12:56:04;;;;;;;30.02;20.25;;;12.50;96.70;;;;;;5002440;28;20029;-75
2020/12/29 12:58:32;;;;;;;9.82;6.07;;;12.50;96.70;;;;;;5022357;28;20045;-75
2020/12/29 13:00:59;;;;;;;6.50;5.03;;;12.40;96.70;;;;;;5000053;28;20034;-74